createdAt,value
2017-04-24T00:00:23.733Z,55.80
2017-04-24T00:01:22.809Z,55.70
2017-04-24T00:02:21.908Z,55.90
2017-04-24T00:03:21.000Z,55.80
2017-04-24T00:04:20.160Z,56.00
2017-04-24T00:05:19.237Z,56.10
2017-04-24T00:06:18.577Z,55.90
2017-04-24T00:07:17.658Z,55.90
2017-04-24T00:08:16.736Z,56.00
2017-04-24T00:09:15.808Z,56.00
2017-04-24T00:10:14.883Z,55.80
2017-04-24T00:11:13.983Z,55.90
2017-04-24T00:12:13.050Z,55.70
2017-04-24T00:13:12.138Z,55.70
2017-04-24T00:14:11.257Z,55.80
2017-04-24T00:15:10.328Z,55.90
2017-04-24T00:16:09.399Z,56.10
2017-04-24T00:17:08.509Z,56.40
2017-04-24T00:18:07.584Z,56.60
2017-04-24T00:19:06.655Z,56.80
2017-04-24T00:20:05.729Z,57.10
2017-04-24T00:21:04.808Z,57.30
2017-04-24T00:22:03.897Z,57.30
2017-04-24T00:23:03.115Z,57.30
2017-04-24T00:24:02.192Z,57.40
2017-04-24T00:25:01.276Z,57.30
2017-04-24T00:26:00.353Z,57.30
2017-04-24T00:26:59.532Z,57.30
2017-04-24T00:27:58.612Z,57.40
2017-04-24T00:28:57.692Z,57.40
2017-04-24T00:29:56.764Z,57.10
2017-04-24T00:30:56.623Z,57.10
2017-04-24T00:31:55.696Z,57.00
2017-04-24T00:32:54.850Z,57.10
2017-04-24T00:33:53.920Z,57.10
2017-04-24T00:34:53.885Z,57.00
2017-04-24T00:35:52.959Z,56.90
2017-04-24T00:36:52.028Z,56.60
2017-04-24T00:37:51.116Z,56.70
2017-04-24T00:38:50.185Z,56.80
2017-04-24T00:39:49.276Z,57.00
2017-04-24T00:40:48.355Z,57.10
2017-04-24T00:41:47.432Z,57.50
2017-04-24T00:42:46.523Z,57.80
2017-04-24T00:43:45.620Z,57.80
2017-04-24T00:44:44.943Z,57.90
2017-04-24T00:45:44.024Z,57.90
2017-04-24T00:46:43.092Z,57.70
2017-04-24T00:47:42.193Z,57.60
2017-04-24T00:48:41.288Z,57.60
2017-04-24T00:49:40.362Z,57.60
2017-04-24T00:50:39.440Z,57.60
2017-04-24T00:51:38.564Z,57.60
2017-04-24T00:52:38.401Z,57.70
2017-04-24T00:53:37.487Z,57.60
2017-04-24T00:54:36.568Z,57.50
2017-04-24T00:55:35.646Z,57.50
2017-04-24T00:56:34.813Z,57.70
2017-04-24T00:57:34.634Z,57.00
2017-04-24T00:58:33.767Z,56.40
2017-04-24T00:59:32.955Z,57.40
2017-04-24T01:00:32.141Z,56.80
2017-04-24T01:01:31.217Z,56.60
2017-04-24T01:02:30.300Z,56.50
2017-04-24T01:03:29.384Z,56.50
2017-04-24T01:04:28.536Z,56.70
2017-04-24T01:05:27.608Z,57.10
2017-04-24T01:06:27.503Z,57.20
2017-04-24T01:07:27.316Z,57.20
2017-04-24T01:08:27.199Z,57.40
2017-04-24T01:09:26.293Z,57.60
2017-04-24T01:10:26.168Z,57.60
2017-04-24T01:11:25.243Z,57.70
2017-04-24T01:12:24.372Z,57.80
2017-04-24T01:13:24.188Z,57.80
2017-04-24T01:14:23.383Z,58.20
2017-04-24T01:15:22.592Z,57.40
2017-04-24T01:16:21.663Z,57.30
2017-04-24T01:17:20.737Z,57.30
2017-04-24T01:18:19.823Z,57.30
2017-04-24T01:19:18.955Z,57.40
2017-04-24T01:20:18.057Z,57.40
2017-04-24T01:21:17.140Z,57.60
2017-04-24T01:22:16.213Z,58.00
2017-04-24T01:23:15.344Z,58.10
2017-04-24T01:24:14.482Z,58.10
2017-04-24T01:25:13.572Z,58.00
2017-04-24T01:26:12.643Z,58.00
2017-04-24T01:27:11.715Z,58.10
2017-04-24T01:28:10.795Z,58.30
2017-04-24T01:29:09.871Z,58.20
2017-04-24T01:30:09.047Z,58.40
2017-04-24T01:31:08.124Z,58.40
2017-04-24T01:32:07.204Z,58.20
2017-04-24T01:33:07.021Z,58.10
2017-04-24T01:34:06.459Z,58.20
2017-04-24T01:35:05.531Z,58.20
2017-04-24T01:36:04.627Z,58.50
2017-04-24T01:37:03.696Z,58.70
2017-04-24T01:38:02.828Z,58.90
2017-04-24T01:39:02.664Z,59.40
2017-04-24T01:40:01.737Z,58.90
2017-04-24T01:41:00.944Z,59.30
2017-04-24T01:42:00.029Z,58.60
2017-04-24T01:42:59.109Z,58.40
2017-04-24T01:43:58.538Z,58.40
2017-04-24T01:44:57.612Z,58.40
2017-04-24T01:45:56.704Z,58.60
2017-04-24T01:46:56.816Z,59.00
2017-04-24T01:47:55.945Z,59.30
2017-04-24T01:48:55.772Z,59.70
2017-04-24T01:49:54.847Z,59.50
2017-04-24T01:50:53.923Z,59.30
2017-04-24T01:51:53.012Z,58.90
2017-04-24T01:52:52.108Z,58.80
2017-04-24T01:53:51.192Z,58.80
2017-04-24T01:54:50.264Z,58.60
2017-04-24T01:55:49.408Z,58.40
2017-04-24T01:56:48.496Z,58.40
2017-04-24T01:57:47.575Z,58.70
2017-04-24T01:58:46.644Z,58.90
2017-04-24T01:59:45.715Z,58.80
2017-04-24T02:00:44.796Z,58.50
2017-04-24T02:01:43.987Z,58.70
2017-04-24T02:02:43.143Z,58.80
2017-04-24T02:03:42.225Z,58.80
2017-04-24T02:04:42.036Z,58.90
2017-04-24T02:05:41.125Z,59.20
2017-04-24T02:06:40.199Z,58.70
2017-04-24T02:07:40.032Z,58.70
2017-04-24T02:08:39.180Z,58.70
2017-04-24T02:09:38.988Z,58.80
2017-04-24T02:10:38.802Z,58.90
2017-04-24T02:11:37.872Z,59.30
2017-04-24T02:12:37.728Z,59.00
2017-04-24T02:13:36.799Z,59.40
2017-04-24T02:14:35.928Z,59.60
2017-04-24T02:15:34.995Z,59.60
2017-04-24T02:16:34.072Z,59.40
2017-04-24T02:17:33.161Z,59.30
2017-04-24T02:18:32.393Z,59.30
2017-04-24T02:19:31.471Z,59.30
2017-04-24T02:20:31.283Z,59.40
2017-04-24T02:21:30.360Z,59.60
2017-04-24T02:22:30.181Z,59.60
2017-04-24T02:23:29.280Z,59.60
2017-04-24T02:24:28.364Z,59.70
2017-04-24T02:25:27.443Z,60.00
2017-04-24T02:26:26.596Z,60.00
2017-04-24T02:27:26.500Z,60.00
2017-04-24T02:28:26.321Z,60.00
2017-04-24T02:29:25.436Z,59.70
2017-04-24T02:30:24.513Z,59.50
2017-04-24T02:31:23.584Z,59.20
2017-04-24T02:32:22.714Z,59.10
2017-04-24T02:33:21.797Z,59.10
2017-04-24T02:34:20.873Z,59.20
2017-04-24T02:35:19.968Z,59.50
2017-04-24T02:36:19.035Z,59.70
2017-04-24T02:37:18.106Z,59.70
2017-04-24T02:38:17.189Z,59.60
2017-04-24T02:39:16.284Z,59.20
2017-04-24T02:40:15.549Z,59.10
2017-04-24T02:41:14.616Z,59.20
2017-04-24T02:42:14.433Z,59.40
2017-04-24T02:43:13.517Z,59.50
2017-04-24T02:44:12.592Z,59.60
2017-04-24T02:45:12.408Z,59.70
2017-04-24T02:46:11.511Z,59.90
2017-04-24T02:47:10.593Z,59.90
2017-04-24T02:48:09.676Z,59.90
2017-04-24T02:49:08.755Z,59.90
2017-04-24T02:50:07.823Z,59.90
2017-04-24T02:51:06.907Z,59.70
2017-04-24T02:52:06.747Z,59.70
2017-04-24T02:53:05.843Z,59.70
2017-04-24T02:54:04.941Z,59.60
2017-04-24T02:55:04.015Z,59.50
2017-04-24T02:56:03.089Z,59.50
2017-04-24T02:57:02.156Z,59.70
2017-04-24T02:58:01.252Z,59.90
2017-04-24T02:59:00.324Z,60.10
2017-04-24T02:59:59.426Z,60.30
2017-04-24T03:00:58.564Z,61.10
2017-04-24T03:01:58.385Z,60.20
2017-04-24T03:02:57.521Z,61.20
2017-04-24T03:03:56.732Z,60.40
2017-04-24T03:04:56.636Z,59.80
2017-04-24T03:05:55.707Z,60.60
2017-04-24T03:06:55.294Z,60.60
2017-04-24T03:07:54.372Z,60.70
2017-04-24T03:08:53.476Z,60.50
2017-04-24T03:09:52.544Z,60.50
2017-04-24T03:10:51.620Z,60.70
2017-04-24T03:11:50.696Z,61.00
2017-04-24T03:12:49.764Z,61.20
2017-04-24T03:13:48.939Z,61.30
2017-04-24T03:14:48.019Z,62.10
2017-04-24T03:15:47.100Z,60.70
2017-04-24T03:16:46.916Z,60.50
2017-04-24T03:17:45.219Z,60.40
2017-04-24T03:18:44.296Z,60.60
2017-04-24T03:19:43.403Z,60.50
2017-04-24T03:20:42.476Z,60.60
2017-04-24T03:21:41.596Z,60.70
2017-04-24T03:22:41.411Z,61.50
2017-04-24T03:23:41.240Z,60.50
2017-04-24T03:24:40.321Z,60.70
2017-04-24T03:25:39.412Z,60.90
2017-04-24T03:26:38.491Z,60.80
2017-04-24T03:27:37.567Z,60.60
2017-04-24T03:28:36.643Z,60.60
2017-04-24T03:29:36.460Z,60.90
2017-04-24T03:30:35.552Z,60.90
2017-04-24T03:31:34.631Z,61.10
2017-04-24T03:32:33.703Z,61.10
2017-04-24T03:33:32.776Z,61.00
2017-04-24T03:34:32.588Z,60.70
2017-04-24T03:35:32.428Z,60.90
2017-04-24T03:36:31.491Z,61.00
2017-04-24T03:37:31.256Z,60.90
2017-04-24T03:38:30.328Z,60.70
2017-04-24T03:39:29.419Z,60.60
2017-04-24T03:40:28.486Z,60.80
2017-04-24T03:41:27.575Z,60.70
2017-04-24T03:42:26.652Z,60.90
2017-04-24T03:43:25.729Z,60.90
2017-04-24T03:44:24.804Z,60.80
2017-04-24T03:45:23.912Z,60.80
2017-04-24T03:46:23.020Z,60.80
2017-04-24T03:47:22.840Z,60.70
2017-04-24T03:48:22.653Z,60.50
2017-04-24T03:49:21.724Z,60.80
2017-04-24T03:50:21.539Z,60.10
2017-04-24T03:51:20.623Z,60.00
2017-04-24T03:52:19.753Z,60.60
2017-04-24T03:53:18.841Z,59.90
2017-04-24T03:54:17.925Z,60.00
2017-04-24T03:55:17.003Z,60.30
2017-04-24T03:56:16.498Z,60.50
2017-04-24T03:57:15.611Z,60.40
2017-04-24T03:58:14.711Z,60.30
2017-04-24T03:59:14.536Z,60.10
2017-04-24T04:00:13.699Z,59.80
2017-04-24T04:01:13.532Z,59.80
2017-04-24T04:02:12.722Z,60.20
2017-04-24T04:03:11.842Z,60.20
2017-04-24T04:04:10.928Z,59.90
2017-04-24T04:05:10.016Z,59.90
2017-04-24T04:06:09.324Z,60.30
2017-04-24T04:07:09.183Z,60.60
2017-04-24T04:08:08.273Z,60.70
2017-04-24T04:09:07.352Z,60.60
2017-04-24T04:10:06.496Z,60.50
2017-04-24T04:11:06.328Z,60.60
2017-04-24T04:12:05.429Z,60.20
2017-04-24T04:13:04.538Z,60.60
2017-04-24T04:14:03.633Z,60.60
2017-04-24T04:15:02.712Z,60.80
2017-04-24T04:16:01.792Z,61.00
2017-04-24T04:17:03.352Z,61.20
2017-04-24T04:18:02.444Z,61.20
2017-04-24T04:19:01.519Z,61.10
2017-04-24T04:20:00.607Z,61.00
2017-04-24T04:20:59.688Z,60.80
2017-04-24T04:21:58.769Z,60.60
2017-04-24T04:22:57.877Z,60.80
2017-04-24T04:23:57.873Z,61.10
2017-04-24T04:24:56.957Z,61.10
2017-04-24T04:25:56.049Z,61.10
2017-04-24T04:26:55.879Z,60.90
2017-04-24T04:27:54.992Z,60.80
2017-04-24T04:28:54.079Z,60.70
2017-04-24T04:29:53.163Z,60.60
2017-04-24T04:30:52.249Z,60.60
2017-04-24T04:31:51.336Z,60.70
2017-04-24T04:32:50.449Z,61.00
2017-04-24T04:33:49.698Z,61.00
2017-04-24T04:34:48.788Z,60.80
2017-04-24T04:35:47.928Z,60.60
2017-04-24T04:36:47.759Z,61.60
2017-04-24T04:37:46.844Z,60.80
2017-04-24T04:38:45.953Z,61.10
2017-04-24T04:39:45.040Z,61.20
2017-04-24T04:40:44.124Z,61.20
2017-04-24T04:41:43.208Z,61.30
2017-04-24T04:42:42.294Z,61.30
2017-04-24T04:43:41.404Z,61.30
2017-04-24T04:44:40.493Z,61.40
2017-04-24T04:45:39.599Z,61.30
2017-04-24T04:46:39.437Z,61.30
2017-04-24T04:47:38.585Z,61.20
2017-04-24T04:48:38.417Z,61.10
2017-04-24T04:49:37.536Z,60.40
2017-04-24T04:50:36.625Z,60.10
2017-04-24T04:51:35.814Z,60.20
2017-04-24T04:52:34.944Z,60.30
2017-04-24T04:53:34.028Z,60.40
2017-04-24T04:54:33.871Z,60.50
2017-04-24T04:55:32.964Z,60.10
2017-04-24T04:56:32.043Z,60.00
2017-04-24T04:57:31.120Z,59.80
2017-04-24T04:58:30.204Z,59.80
2017-04-24T04:59:29.305Z,59.70
2017-04-24T05:00:28.436Z,59.70
2017-04-24T05:01:28.264Z,59.80
2017-04-24T05:02:27.371Z,59.90
2017-04-24T05:03:26.464Z,60.00
2017-04-24T05:04:25.559Z,60.20
2017-04-24T05:05:24.695Z,60.10
2017-04-24T05:06:23.783Z,60.00
2017-04-24T05:07:22.872Z,59.90
2017-04-24T05:08:21.953Z,59.90
2017-04-24T05:09:21.049Z,59.90
2017-04-24T05:10:20.152Z,59.80
2017-04-24T05:11:19.254Z,59.80
2017-04-24T05:12:18.351Z,59.80
2017-04-24T05:13:17.661Z,59.70
2017-04-24T05:14:17.484Z,59.80
2017-04-24T05:15:16.648Z,60.00
2017-04-24T05:16:16.503Z,60.10
2017-04-24T05:17:15.588Z,59.80
2017-04-24T05:18:14.696Z,59.80
2017-04-24T05:19:13.778Z,59.90
2017-04-24T05:20:12.861Z,60.10
2017-04-24T05:21:11.973Z,60.20
2017-04-24T05:22:11.052Z,60.20
2017-04-24T05:23:10.144Z,60.20
2017-04-24T05:24:09.980Z,60.10
2017-04-24T05:25:09.228Z,60.00
2017-04-24T05:26:09.084Z,59.90
2017-04-24T05:27:08.200Z,59.80
2017-04-24T05:28:07.288Z,59.60
2017-04-24T05:29:06.417Z,59.40
2017-04-24T05:30:06.306Z,59.60
2017-04-24T05:31:06.212Z,59.50
2017-04-24T05:32:06.132Z,59.40
2017-04-24T05:33:05.228Z,59.60
2017-04-24T05:34:04.354Z,59.20
2017-04-24T05:35:03.455Z,59.00
2017-04-24T05:36:02.536Z,59.00
2017-04-24T05:37:01.661Z,58.80
2017-04-24T05:38:00.748Z,59.00
2017-04-24T05:38:59.844Z,59.10
2017-04-24T05:39:58.928Z,58.30
2017-04-24T05:40:58.021Z,58.10
2017-04-24T05:41:57.135Z,58.00
2017-04-24T05:42:56.237Z,58.00
2017-04-24T05:43:55.331Z,58.20
2017-04-24T05:44:55.164Z,58.80
2017-04-24T05:45:54.256Z,58.20
2017-04-24T05:46:53.347Z,58.00
2017-04-24T05:47:52.448Z,57.90
2017-04-24T05:48:51.536Z,57.70
2017-04-24T05:49:50.619Z,57.70
2017-04-24T05:50:49.951Z,58.00
2017-04-24T05:51:49.780Z,57.80
2017-04-24T05:52:48.896Z,57.00
2017-04-24T05:53:47.973Z,57.00
2017-04-24T05:54:47.048Z,56.60
2017-04-24T05:55:46.132Z,56.50
2017-04-24T05:56:45.220Z,56.30
2017-04-24T05:57:44.306Z,56.30
2017-04-24T05:58:43.408Z,55.80
2017-04-24T05:59:42.507Z,55.80
2017-04-24T06:00:41.592Z,55.70
2017-04-24T06:01:40.678Z,55.70
2017-04-24T06:02:39.800Z,55.50
2017-04-24T06:03:39.651Z,55.30
2017-04-24T06:04:38.744Z,55.10
2017-04-24T06:05:37.840Z,55.20
2017-04-24T06:06:36.928Z,55.40
2017-04-24T06:07:36.040Z,55.40
2017-04-24T06:08:35.899Z,55.20
2017-04-24T06:09:34.983Z,55.00
2017-04-24T06:10:34.071Z,54.80
2017-04-24T06:11:33.239Z,54.80
2017-04-24T06:12:32.327Z,54.80
2017-04-24T06:13:31.439Z,54.30
2017-04-24T06:14:30.559Z,53.90
2017-04-24T06:15:30.387Z,53.80
2017-04-24T06:16:29.513Z,53.70
2017-04-24T06:17:28.592Z,53.60
2017-04-24T06:18:27.676Z,53.90
2017-04-24T06:19:26.782Z,53.80
2017-04-24T06:20:25.860Z,53.40
2017-04-24T06:21:24.950Z,53.40
2017-04-24T06:22:24.036Z,53.20
2017-04-24T06:23:23.120Z,53.30
2017-04-24T06:24:22.216Z,53.30
2017-04-24T06:25:21.328Z,53.30
2017-04-24T06:26:20.410Z,53.30
2017-04-24T06:27:19.504Z,53.10
2017-04-24T06:28:18.645Z,53.00
2017-04-24T06:29:17.733Z,53.00
2017-04-24T06:30:17.136Z,53.00
2017-04-24T06:31:16.236Z,53.40
2017-04-24T06:32:16.677Z,52.50
2017-04-24T06:33:16.248Z,52.20
2017-04-24T06:34:16.150Z,49.90
2017-04-24T06:35:15.991Z,49.70
2017-04-24T06:36:15.080Z,50.00
2017-04-24T06:37:14.169Z,50.70
2017-04-24T06:38:13.320Z,50.90
2017-04-24T06:39:12.412Z,50.80
2017-04-24T06:40:11.547Z,51.00
2017-04-24T06:41:10.644Z,51.10
2017-04-24T06:42:09.947Z,50.80
2017-04-24T06:43:09.859Z,50.40
2017-04-24T06:44:09.728Z,50.30
2017-04-24T06:45:08.853Z,50.30
2017-04-24T06:46:08.719Z,50.30
2017-04-24T06:47:07.802Z,49.70
2017-04-24T06:48:06.936Z,49.30
2017-04-24T06:49:06.019Z,49.70
2017-04-24T06:50:05.103Z,49.60
2017-04-24T06:51:04.947Z,49.00
2017-04-24T06:52:04.026Z,48.00
2017-04-24T06:53:03.145Z,47.70
2017-04-24T06:54:02.227Z,48.00
2017-04-24T06:55:01.312Z,48.20
2017-04-24T06:56:00.439Z,48.30
2017-04-24T06:56:59.543Z,48.20
2017-04-24T06:57:58.636Z,47.90
2017-04-24T06:58:57.718Z,47.60
2017-04-24T06:59:56.806Z,47.30
2017-04-24T07:00:56.255Z,47.50
2017-04-24T07:01:56.112Z,47.70
2017-04-24T07:03:05.552Z,47.50
2017-04-24T07:04:04.650Z,47.60
2017-04-24T07:05:03.855Z,47.60
2017-04-24T07:06:03.692Z,47.40
2017-04-24T07:07:03.164Z,46.80
2017-04-24T07:08:03.003Z,46.10
2017-04-24T07:09:02.098Z,45.30
2017-04-24T07:10:01.435Z,45.40
2017-04-24T07:11:01.267Z,45.50
2017-04-24T07:12:00.396Z,45.40
2017-04-24T07:12:59.480Z,45.30
2017-04-24T07:13:58.580Z,44.70
2017-04-24T07:14:57.760Z,44.00
2017-04-24T07:15:56.851Z,43.00
2017-04-24T07:16:55.947Z,42.80
2017-04-24T07:17:55.799Z,42.20
2017-04-24T07:18:54.900Z,43.00
2017-04-24T07:19:54.095Z,44.00
2017-04-24T07:20:53.204Z,43.70
2017-04-24T07:21:52.305Z,41.80
2017-04-24T07:22:51.431Z,41.30
2017-04-24T07:23:50.527Z,41.40
2017-04-24T07:24:49.623Z,42.90
2017-04-24T07:25:48.716Z,42.00
2017-04-24T07:26:47.808Z,42.10
2017-04-24T07:27:46.914Z,41.30
2017-04-24T07:28:46.819Z,42.10
2017-04-24T07:29:46.684Z,41.40
2017-04-24T07:30:45.784Z,40.30
2017-04-24T07:31:44.921Z,40.40
2017-04-24T07:32:44.036Z,40.90
2017-04-24T07:33:43.132Z,40.50
2017-04-24T07:34:42.255Z,40.50
2017-04-24T07:35:42.151Z,41.30
2017-04-24T07:36:41.983Z,42.30
2017-04-24T07:37:41.108Z,41.80
2017-04-24T07:38:40.212Z,40.70
2017-04-24T07:39:39.295Z,39.80
2017-04-24T07:40:38.467Z,40.00
2017-04-24T07:41:37.564Z,40.90
2017-04-24T07:42:36.668Z,39.30
2017-04-24T07:43:36.523Z,39.80
2017-04-24T07:44:35.616Z,40.60
2017-04-24T07:45:34.711Z,40.60
2017-04-24T07:46:33.805Z,39.70
2017-04-24T07:47:32.918Z,39.70
2017-04-24T07:48:32.784Z,39.60
2017-04-24T07:49:31.899Z,39.60
2017-04-24T07:50:31.727Z,39.90
2017-04-24T07:51:30.856Z,40.40
2017-04-24T07:52:29.971Z,40.70
2017-04-24T07:53:29.846Z,39.40
2017-04-24T07:54:28.952Z,38.40
2017-04-24T07:55:28.051Z,38.40
2017-04-24T07:56:27.888Z,38.50
2017-04-24T07:57:26.983Z,37.50
2017-04-24T07:58:26.108Z,37.70
2017-04-24T07:59:25.200Z,36.80
2017-04-24T08:00:24.296Z,36.90
2017-04-24T08:01:24.155Z,37.90
2017-04-24T08:02:23.252Z,38.40
2017-04-24T08:03:22.436Z,38.50
2017-04-24T08:04:21.575Z,38.30
2017-04-24T08:05:20.711Z,38.00
2017-04-24T08:06:19.804Z,38.30
2017-04-24T08:08:18.298Z,36.50
2017-04-24T08:09:18.174Z,37.20
2017-04-24T08:10:17.292Z,36.60
2017-04-24T08:11:17.132Z,37.10
2017-04-24T08:12:16.244Z,36.20
2017-04-24T08:13:15.372Z,36.40
2017-04-24T08:14:15.240Z,36.20
2017-04-24T08:15:14.335Z,35.70
2017-04-24T08:16:13.436Z,35.20
2017-04-24T08:17:13.274Z,35.80
2017-04-24T08:18:12.371Z,36.10
2017-04-24T08:19:11.473Z,35.40
2017-04-24T08:20:10.591Z,35.70
2017-04-24T08:21:09.692Z,35.30
2017-04-24T08:22:09.536Z,36.80
2017-04-24T08:23:08.637Z,35.90
2017-04-24T08:24:07.760Z,36.00
2017-04-24T08:25:07.616Z,36.30
2017-04-24T08:26:06.715Z,36.00
2017-04-24T08:27:05.821Z,36.20
2017-04-24T08:28:04.919Z,35.90
2017-04-24T08:29:04.760Z,35.00
2017-04-24T08:30:03.892Z,35.30
2017-04-24T08:31:02.991Z,35.90
2017-04-24T08:32:02.835Z,35.80
2017-04-24T08:33:01.940Z,35.80
2017-04-24T08:34:01.032Z,35.50
2017-04-24T08:35:00.140Z,35.00
2017-04-24T08:36:05.707Z,35.20
2017-04-24T08:37:05.385Z,35.40
2017-04-24T08:38:05.240Z,35.90
2017-04-24T08:39:05.568Z,35.20
2017-04-24T08:40:04.688Z,34.90
2017-04-24T08:41:04.536Z,35.30
2017-04-24T08:42:03.675Z,35.10
2017-04-24T08:43:03.519Z,35.60
2017-04-24T08:44:02.623Z,35.70
2017-04-24T08:45:01.719Z,35.20
2017-04-24T08:46:00.863Z,34.70
2017-04-24T08:47:00.095Z,34.50
2017-04-24T08:47:59.192Z,35.50
2017-04-24T08:48:58.293Z,36.70
2017-04-24T08:49:58.140Z,35.70
2017-04-24T08:50:57.311Z,35.00
2017-04-24T08:51:56.408Z,35.80
2017-04-24T08:52:55.527Z,35.20
2017-04-24T08:53:54.652Z,35.50
2017-04-24T08:54:53.760Z,35.20
2017-04-24T08:55:52.863Z,35.10
2017-04-24T08:56:51.980Z,35.60
2017-04-24T08:57:51.091Z,35.90
2017-04-24T08:58:50.943Z,36.50
2017-04-24T08:59:50.036Z,36.40
2017-04-24T09:00:49.230Z,36.00
2017-04-24T09:01:48.369Z,34.90
2017-04-24T09:02:47.484Z,34.10
2017-04-24T09:03:46.616Z,35.10
2017-04-24T09:04:46.464Z,35.50
2017-04-24T09:05:45.555Z,33.80
2017-04-24T09:06:44.648Z,34.40
2017-04-24T09:07:43.760Z,34.40
2017-04-24T09:08:42.849Z,34.30
2017-04-24T09:09:41.944Z,34.70
2017-04-24T09:10:41.784Z,35.20
2017-04-24T09:11:40.883Z,34.60
2017-04-24T09:12:39.997Z,33.50
2017-04-24T09:13:39.092Z,33.30
2017-04-24T09:14:38.188Z,34.40
2017-04-24T09:15:38.023Z,34.60
2017-04-24T09:16:37.119Z,35.30
2017-04-24T09:17:36.253Z,35.70
2017-04-24T09:18:35.352Z,34.70
2017-04-24T09:19:35.224Z,35.60
2017-04-24T09:20:34.339Z,34.70
2017-04-24T09:21:34.188Z,34.10
2017-04-24T09:22:33.356Z,33.70
2017-04-24T09:23:32.471Z,34.40
2017-04-24T09:24:31.567Z,34.20
2017-04-24T09:25:30.663Z,34.00
2017-04-24T09:26:29.760Z,33.70
2017-04-24T09:27:28.890Z,32.70
2017-04-24T09:28:27.993Z,32.60
2017-04-24T09:29:27.087Z,33.40
2017-04-24T09:30:26.175Z,31.70
2017-04-24T09:31:25.280Z,33.50
2017-04-24T09:32:24.372Z,32.00
2017-04-24T09:33:23.485Z,31.30
2017-04-24T09:34:22.592Z,31.70
2017-04-24T09:35:21.684Z,31.50
2017-04-24T09:36:20.783Z,32.50
2017-04-24T09:37:19.890Z,32.00
2017-04-24T09:38:19.012Z,32.30
2017-04-24T09:39:18.112Z,32.30
2017-04-24T09:40:17.236Z,31.80
2017-04-24T09:41:16.327Z,32.10
2017-04-24T09:42:15.458Z,32.20
2017-04-24T09:43:14.547Z,30.20
2017-04-24T09:44:13.655Z,30.10
2017-04-24T09:45:12.755Z,30.90
2017-04-24T09:46:11.850Z,31.20
2017-04-24T09:47:10.943Z,31.50
2017-04-24T09:48:10.048Z,31.10
2017-04-24T09:49:09.916Z,30.50
2017-04-24T09:50:09.056Z,29.50
2017-04-24T09:51:08.332Z,29.60
2017-04-24T09:52:08.179Z,30.30
2017-04-24T09:53:07.301Z,28.60
2017-04-24T09:54:06.396Z,27.90
2017-04-24T09:55:05.508Z,27.70
2017-04-24T09:56:04.617Z,26.40
2017-04-24T09:57:03.729Z,26.10
2017-04-24T09:58:02.875Z,26.00
2017-04-24T09:59:01.991Z,25.40
2017-04-24T10:00:01.129Z,25.10
2017-04-24T10:01:00.974Z,24.80
2017-04-24T10:02:00.072Z,23.70
2017-04-24T10:02:59.168Z,23.50
2017-04-24T10:03:58.268Z,23.40
2017-04-24T10:04:57.360Z,23.00
2017-04-24T10:06:59.291Z,22.10
2017-04-24T10:07:58.387Z,21.80
2017-04-24T10:08:57.488Z,21.70
2017-04-24T10:09:57.328Z,20.90
2017-04-24T10:10:56.457Z,20.70
2017-04-24T10:11:55.551Z,20.10
2017-04-24T10:12:54.664Z,20.60
2017-04-24T10:13:54.504Z,20.50
2017-04-24T10:14:53.612Z,20.20
2017-04-24T10:15:52.796Z,20.20
2017-04-24T10:16:51.936Z,19.30
2017-04-24T10:17:51.034Z,20.10
2017-04-24T10:18:50.140Z,19.10
2017-04-24T10:19:49.233Z,19.20
2017-04-24T10:20:48.335Z,19.00
2017-04-24T10:21:47.451Z,18.70
2017-04-24T10:22:46.555Z,18.40
2017-04-24T10:23:45.661Z,18.70
2017-04-24T10:24:44.767Z,18.80
2017-04-24T10:25:43.864Z,19.40
2017-04-24T10:26:42.959Z,19.20
2017-04-24T10:27:42.820Z,19.20
2017-04-24T10:28:41.920Z,18.40
2017-04-24T10:29:41.041Z,18.40
2017-04-24T10:30:40.884Z,19.10
2017-04-24T10:31:39.980Z,19.30
2017-04-24T10:32:39.112Z,19.10
2017-04-24T10:33:39.122Z,19.90
2017-04-24T10:34:38.972Z,18.90
2017-04-24T10:35:38.072Z,19.80
2017-04-24T10:36:37.183Z,18.90
2017-04-24T10:37:36.296Z,18.50
2017-04-24T10:38:35.404Z,19.70
2017-04-24T10:39:34.516Z,19.10
2017-04-24T10:40:33.620Z,18.80
2017-04-24T10:41:32.724Z,19.10
2017-04-24T10:42:32.596Z,18.60
2017-04-24T10:43:31.740Z,18.30
2017-04-24T10:44:30.912Z,18.30
2017-04-24T10:45:30.183Z,18.90
2017-04-24T10:46:30.037Z,18.50
2017-04-24T10:47:29.186Z,19.40
2017-04-24T10:48:29.032Z,18.60
2017-04-24T10:49:28.136Z,18.80
2017-04-24T10:50:27.253Z,19.90
2017-04-24T10:51:27.110Z,20.60
2017-04-24T10:52:26.242Z,20.60
2017-04-24T10:53:26.121Z,19.60
2017-04-24T10:54:25.230Z,19.70
2017-04-24T10:55:25.139Z,19.60
2017-04-24T10:56:25.039Z,19.80
2017-04-24T10:57:24.948Z,20.30
2017-04-24T10:58:24.842Z,20.50
2017-04-24T10:59:24.692Z,20.10
2017-04-24T11:00:23.811Z,19.80
2017-04-24T11:01:22.980Z,19.90
2017-04-24T11:02:22.086Z,19.50
2017-04-24T11:03:21.208Z,19.60
2017-04-24T11:04:20.317Z,18.80
2017-04-24T11:05:19.416Z,18.60
2017-04-24T11:06:18.524Z,19.00
2017-04-24T11:07:17.616Z,19.60
2017-04-24T11:08:16.713Z,20.50
2017-04-24T11:09:15.845Z,20.80
2017-04-24T11:10:14.960Z,21.20
2017-04-24T11:11:14.053Z,20.80
2017-04-24T11:12:13.152Z,21.30
2017-04-24T11:13:12.264Z,21.50
2017-04-24T11:14:11.381Z,20.60
2017-04-24T11:15:10.480Z,21.50
2017-04-24T11:16:09.643Z,21.40
2017-04-24T11:17:08.740Z,21.90
2017-04-24T11:18:07.923Z,22.00
2017-04-24T11:19:07.061Z,21.20
2017-04-24T11:20:06.912Z,22.30
2017-04-24T11:21:06.027Z,22.80
2017-04-24T11:22:05.132Z,22.60
2017-04-24T11:23:04.232Z,22.60
2017-04-24T11:24:04.079Z,23.00
2017-04-24T11:25:03.216Z,22.60
2017-04-24T11:26:03.059Z,22.90
2017-04-24T11:27:02.418Z,22.40
2017-04-24T11:28:02.419Z,23.60
2017-04-24T11:29:02.260Z,23.80
2017-04-24T11:30:01.380Z,23.30
2017-04-24T11:31:00.472Z,23.80
2017-04-24T11:31:59.568Z,24.30
2017-04-24T11:32:58.741Z,23.80
2017-04-24T11:33:57.837Z,22.90
2017-04-24T11:34:56.977Z,22.80
2017-04-24T11:35:56.073Z,24.30
2017-04-24T11:36:55.218Z,24.50
2017-04-24T11:37:55.056Z,24.80
2017-04-24T11:38:54.151Z,25.70
2017-04-24T11:39:53.257Z,26.30
2017-04-24T11:40:52.435Z,25.60
2017-04-24T11:41:51.533Z,24.90
2017-04-24T11:42:50.623Z,25.10
2017-04-24T11:43:49.729Z,25.80
2017-04-24T11:44:49.563Z,25.40
2017-04-24T11:45:49.508Z,25.20
2017-04-24T11:46:48.606Z,24.60
2017-04-24T11:47:47.772Z,25.10
2017-04-24T11:48:46.871Z,25.70
2017-04-24T11:49:45.967Z,26.70
2017-04-24T11:50:45.088Z,27.30
2017-04-24T11:51:44.175Z,27.20
2017-04-24T11:52:43.290Z,27.90
2017-04-24T11:53:42.383Z,28.00
2017-04-24T11:54:41.483Z,28.70
2017-04-24T11:55:40.576Z,28.80
2017-04-24T11:56:39.702Z,28.80
2017-04-24T11:57:38.808Z,27.10
2017-04-24T11:58:37.900Z,27.70
2017-04-24T11:59:37.099Z,27.60
2017-04-24T12:00:36.388Z,26.80
2017-04-24T12:01:35.500Z,27.10
2017-04-24T12:02:35.340Z,28.10
2017-04-24T12:03:34.460Z,27.60
2017-04-24T12:04:33.561Z,28.40
2017-04-24T12:05:32.664Z,28.90
2017-04-24T12:06:32.540Z,28.40
2017-04-24T12:07:31.651Z,27.90
2017-04-24T12:08:33.354Z,27.80
2017-04-24T12:09:32.452Z,28.50
2017-04-24T12:10:31.603Z,28.20
2017-04-24T12:11:30.707Z,28.30
2017-04-24T12:12:29.824Z,27.70
2017-04-24T12:13:28.921Z,27.90
2017-04-24T12:14:28.011Z,28.40
2017-04-24T12:15:27.849Z,28.90
2017-04-24T12:16:26.951Z,28.30
2017-04-24T12:17:26.060Z,27.70
2017-04-24T12:18:25.172Z,27.80
2017-04-24T12:19:25.023Z,27.70
2017-04-24T12:20:24.240Z,27.30
2017-04-24T12:21:23.352Z,27.40
2017-04-24T12:22:23.211Z,27.90
2017-04-24T12:23:22.307Z,27.90
2017-04-24T12:24:21.407Z,28.50
2017-04-24T12:25:20.507Z,27.30
2017-04-24T12:26:20.344Z,27.20
2017-04-24T12:27:19.443Z,26.20
2017-04-24T12:28:18.571Z,26.70
2017-04-24T12:29:17.667Z,27.00
2017-04-24T12:30:17.503Z,27.20
2017-04-24T12:31:16.604Z,27.10
2017-04-24T12:32:15.748Z,27.20
2017-04-24T12:33:15.617Z,28.40
2017-04-24T12:34:14.748Z,28.90
2017-04-24T12:35:13.843Z,27.40
2017-04-24T12:36:12.940Z,28.60
2017-04-24T12:37:12.067Z,29.60
2017-04-24T12:38:11.192Z,28.80
2017-04-24T12:39:10.472Z,28.20
2017-04-24T12:40:10.344Z,28.00
2017-04-24T12:41:09.440Z,28.50
2017-04-24T12:42:08.539Z,28.80
2017-04-24T12:43:08.380Z,28.60
2017-04-24T12:44:07.496Z,28.90
2017-04-24T12:45:06.632Z,28.60